sensor_id;sensor_type;location;lat;lon;timestamp;P1;durP1;ratioP1;P2;durP2;ratioP2
6223;SDS011;3145;42.726;23.342;2022-08-03T00:00:18;3.07;;;2.37;;
6223;SDS011;3145;42.726;23.342;2022-08-03T00:02:45;2.50;;;2.07;;
6223;SDS011;3145;42.726;23.342;2022-08-03T00:05:13;2.50;;;2.30;;
6223;SDS011;3145;42.726;23.342;2022-08-03T00:07:40;3.80;;;2.33;;
6223;SDS011;3145;42.726;23.342;2022-08-03T00:10:07;2.77;;;2.07;;
6223;SDS011;3145;42.726;23.342;2022-08-03T00:12:34;5.23;;;2.27;;
6223;SDS011;3145;42.726;23.342;2022-08-03T00:15:01;1.97;;;1.87;;
6223;SDS011;3145;42.726;23.342;2022-08-03T00:17:28;2.40;;;1.87;;
6223;SDS011;3145;42.726;23.342;2022-08-03T00:19:54;1.97;;;1.87;;
6223;SDS011;3145;42.726;23.342;2022-08-03T00:22:23;2.43;;;2.23;;
6223;SDS011;3145;42.726;23.342;2022-08-03T00:24:49;2.27;;;2.10;;
6223;SDS011;3145;42.726;23.342;2022-08-03T00:27:16;2.83;;;1.90;;
6223;SDS011;3145;42.726;23.342;2022-08-03T00:29:43;2.00;;;1.90;;
6223;SDS011;3145;42.726;23.342;2022-08-03T00:32:09;2.60;;;2.17;;
6223;SDS011;3145;42.726;23.342;2022-08-03T00:34:36;3.30;;;2.17;;
6223;SDS011;3145;42.726;23.342;2022-08-03T00:37:03;2.30;;;2.20;;
6223;SDS011;3145;42.726;23.342;2022-08-03T00:39:31;2.17;;;2.07;;
6223;SDS011;3145;42.726;23.342;2022-08-03T00:42:00;3.73;;;2.00;;
6223;SDS011;3145;42.726;23.342;2022-08-03T00:44:27;2.53;;;2.30;;
6223;SDS011;3145;42.726;23.342;2022-08-03T00:46:54;2.70;;;2.50;;
6223;SDS011;3145;42.726;23.342;2022-08-03T00:49:21;2.53;;;2.33;;
6223;SDS011;3145;42.726;23.342;2022-08-03T00:51:48;2.90;;;2.70;;
6223;SDS011;3145;42.726;23.342;2022-08-03T00:54:15;3.30;;;2.33;;
6223;SDS011;3145;42.726;23.342;2022-08-03T00:56:43;2.27;;;2.17;;
6223;SDS011;3145;42.726;23.342;2022-08-03T00:59:10;2.50;;;2.40;;
6223;SDS011;3145;42.726;23.342;2022-08-03T01:01:39;3.13;;;2.83;;
6223;SDS011;3145;42.726;23.342;2022-08-03T01:04:06;2.33;;;2.20;;
6223;SDS011;3145;42.726;23.342;2022-08-03T01:06:34;2.50;;;2.30;;
6223;SDS011;3145;42.726;23.342;2022-08-03T01:09:07;7.20;;;2.50;;
6223;SDS011;3145;42.726;23.342;2022-08-03T01:11:42;2.20;;;2.00;;
6223;SDS011;3145;42.726;23.342;2022-08-03T01:14:17;2.40;;;2.20;;
6223;SDS011;3145;42.726;23.342;2022-08-03T01:16:51;5.13;;;2.10;;
6223;SDS011;3145;42.726;23.342;2022-08-03T01:19:30;2.10;;;1.80;;
6223;SDS011;3145;42.726;23.342;2022-08-03T01:22:16;2.70;;;2.50;;
6223;SDS011;3145;42.726;23.342;2022-08-03T01:25:02;2.30;;;2.20;;
6223;SDS011;3145;42.726;23.342;2022-08-03T01:27:39;2.70;;;2.27;;
6223;SDS011;3145;42.726;23.342;2022-08-03T01:30:18;3.30;;;2.30;;
6223;SDS011;3145;42.726;23.342;2022-08-03T01:32:45;2.00;;;1.90;;
6223;SDS011;3145;42.726;23.342;2022-08-03T01:35:18;3.20;;;1.80;;
6223;SDS011;3145;42.726;23.342;2022-08-03T01:37:52;2.77;;;2.00;;
6223;SDS011;3145;42.726;23.342;2022-08-03T01:40:23;1.93;;;1.83;;
6223;SDS011;3145;42.726;23.342;2022-08-03T01:42:52;2.60;;;2.50;;
6223;SDS011;3145;42.726;23.342;2022-08-03T01:45:22;1.90;;;1.80;;
6223;SDS011;3145;42.726;23.342;2022-08-03T01:47:50;2.73;;;2.33;;
6223;SDS011;3145;42.726;23.342;2022-08-03T01:50:20;3.03;;;2.30;;
6223;SDS011;3145;42.726;23.342;2022-08-03T01:52:49;3.10;;;2.30;;
6223;SDS011;3145;42.726;23.342;2022-08-03T01:55:18;2.40;;;2.30;;
6223;SDS011;3145;42.726;23.342;2022-08-03T01:57:47;2.00;;;1.87;;
6223;SDS011;3145;42.726;23.342;2022-08-03T02:00:17;3.10;;;2.00;;
6223;SDS011;3145;42.726;23.342;2022-08-03T02:02:46;2.23;;;2.13;;
6223;SDS011;3145;42.726;23.342;2022-08-03T02:05:14;4.43;;;2.40;;
6223;SDS011;3145;42.726;23.342;2022-08-03T02:07:43;4.00;;;2.23;;
6223;SDS011;3145;42.726;23.342;2022-08-03T02:10:13;5.37;;;2.43;;
6223;SDS011;3145;42.726;23.342;2022-08-03T02:12:42;2.07;;;1.97;;
6223;SDS011;3145;42.726;23.342;2022-08-03T02:15:11;5.83;;;2.40;;
6223;SDS011;3145;42.726;23.342;2022-08-03T02:17:40;2.93;;;2.30;;
6223;SDS011;3145;42.726;23.342;2022-08-03T02:20:10;2.47;;;2.00;;
6223;SDS011;3145;42.726;23.342;2022-08-03T02:22:38;2.20;;;2.10;;
6223;SDS011;3145;42.726;23.342;2022-08-03T02:25:07;4.47;;;2.50;;
6223;SDS011;3145;42.726;23.342;2022-08-03T02:27:35;2.00;;;1.90;;
6223;SDS011;3145;42.726;23.342;2022-08-03T02:30:06;2.47;;;2.27;;
6223;SDS011;3145;42.726;23.342;2022-08-03T02:32:36;2.90;;;2.70;;
6223;SDS011;3145;42.726;23.342;2022-08-03T02:35:06;2.80;;;2.60;;
6223;SDS011;3145;42.726;23.342;2022-08-03T02:37:41;2.33;;;2.23;;
6223;SDS011;3145;42.726;23.342;2022-08-03T02:40:10;3.00;;;2.00;;
6223;SDS011;3145;42.726;23.342;2022-08-03T02:42:38;3.40;;;2.50;;
6223;SDS011;3145;42.726;23.342;2022-08-03T02:45:09;2.43;;;2.23;;
6223;SDS011;3145;42.726;23.342;2022-08-03T02:47:38;2.57;;;2.37;;
6223;SDS011;3145;42.726;23.342;2022-08-03T02:50:07;3.20;;;2.40;;
6223;SDS011;3145;42.726;23.342;2022-08-03T02:52:36;2.20;;;2.10;;
6223;SDS011;3145;42.726;23.342;2022-08-03T02:55:07;2.87;;;2.67;;
6223;SDS011;3145;42.726;23.342;2022-08-03T02:57:36;2.90;;;2.70;;
6223;SDS011;3145;42.726;23.342;2022-08-03T03:00:05;4.60;;;3.17;;
6223;SDS011;3145;42.726;23.342;2022-08-03T03:02:33;5.33;;;3.00;;
6223;SDS011;3145;42.726;23.342;2022-08-03T03:05:01;2.90;;;2.70;;
6223;SDS011;3145;42.726;23.342;2022-08-03T03:07:28;4.03;;;3.67;;
6223;SDS011;3145;42.726;23.342;2022-08-03T03:09:56;5.53;;;2.93;;
6223;SDS011;3145;42.726;23.342;2022-08-03T03:12:25;3.33;;;3.03;;
6223;SDS011;3145;42.726;23.342;2022-08-03T03:14:53;3.13;;;2.87;;
6223;SDS011;3145;42.726;23.342;2022-08-03T03:17:20;3.37;;;3.07;;
6223;SDS011;3145;42.726;23.342;2022-08-03T03:19:47;3.50;;;3.20;;
6223;SDS011;3145;42.726;23.342;2022-08-03T03:22:16;4.40;;;4.07;;
6223;SDS011;3145;42.726;23.342;2022-08-03T03:24:43;3.23;;;3.03;;
6223;SDS011;3145;42.726;23.342;2022-08-03T03:27:12;3.40;;;3.10;;
6223;SDS011;3145;42.726;23.342;2022-08-03T03:29:41;5.37;;;4.03;;
6223;SDS011;3145;42.726;23.342;2022-08-03T03:32:09;8.80;;;4.90;;
6223;SDS011;3145;42.726;23.342;2022-08-03T03:34:35;3.80;;;3.60;;
6223;SDS011;3145;42.726;23.342;2022-08-03T03:37:02;3.60;;;3.23;;
6223;SDS011;3145;42.726;23.342;2022-08-03T03:39:30;3.53;;;3.20;;
6223;SDS011;3145;42.726;23.342;2022-08-03T03:41:57;8.63;;;4.00;;
6223;SDS011;3145;42.726;23.342;2022-08-03T03:44:25;3.20;;;3.00;;
6223;SDS011;3145;42.726;23.342;2022-08-03T03:46:54;4.43;;;2.87;;
6223;SDS011;3145;42.726;23.342;2022-08-03T03:49:22;2.80;;;2.50;;
6223;SDS011;3145;42.726;23.342;2022-08-03T03:51:51;4.40;;;2.97;;
6223;SDS011;3145;42.726;23.342;2022-08-03T03:54:18;3.10;;;2.90;;
6223;SDS011;3145;42.726;23.342;2022-08-03T03:56:45;3.33;;;3.03;;
6223;SDS011;3145;42.726;23.342;2022-08-03T03:59:12;3.20;;;2.90;;
6223;SDS011;3145;42.726;23.342;2022-08-03T04:01:39;5.03;;;2.97;;
6223;SDS011;3145;42.726;23.342;2022-08-03T04:04:07;3.87;;;2.90;;
6223;SDS011;3145;42.726;23.342;2022-08-03T04:06:47;3.30;;;3.07;;
6223;SDS011;3145;42.726;23.342;2022-08-03T04:09:32;3.93;;;3.57;;
6223;SDS011;3145;42.726;23.342;2022-08-03T04:12:20;3.07;;;2.83;;
6223;SDS011;3145;42.726;23.342;2022-08-03T04:14:49;3.37;;;2.63;;
6223;SDS011;3145;42.726;23.342;2022-08-03T04:17:19;5.90;;;2.67;;
6223;SDS011;3145;42.726;23.342;2022-08-03T04:19:52;4.30;;;2.57;;
6223;SDS011;3145;42.726;23.342;2022-08-03T04:22:20;2.33;;;2.23;;
6223;SDS011;3145;42.726;23.342;2022-08-03T04:24:51;3.47;;;3.10;;
6223;SDS011;3145;42.726;23.342;2022-08-03T04:27:25;2.67;;;2.47;;
6223;SDS011;3145;42.726;23.342;2022-08-03T04:29:56;4.03;;;2.70;;
6223;SDS011;3145;42.726;23.342;2022-08-03T04:32:24;3.00;;;2.70;;
6223;SDS011;3145;42.726;23.342;2022-08-03T04:34:54;2.90;;;2.70;;
6223;SDS011;3145;42.726;23.342;2022-08-03T04:37:23;3.23;;;2.93;;
6223;SDS011;3145;42.726;23.342;2022-08-03T04:39:57;4.10;;;3.17;;
6223;SDS011;3145;42.726;23.342;2022-08-03T04:42:28;3.83;;;3.20;;
6223;SDS011;3145;42.726;23.342;2022-08-03T04:44:58;8.03;;;3.50;;
6223;SDS011;3145;42.726;23.342;2022-08-03T04:47:27;5.43;;;3.57;;
6223;SDS011;3145;42.726;23.342;2022-08-03T04:49:57;4.63;;;3.87;;
6223;SDS011;3145;42.726;23.342;2022-08-03T04:52:25;4.40;;;4.00;;
6223;SDS011;3145;42.726;23.342;2022-08-03T04:54:52;12.50;;;4.77;;
6223;SDS011;3145;42.726;23.342;2022-08-03T04:57:19;6.70;;;4.40;;
6223;SDS011;3145;42.726;23.342;2022-08-03T04:59:45;5.07;;;4.57;;
6223;SDS011;3145;42.726;23.342;2022-08-03T05:02:13;5.70;;;4.57;;
6223;SDS011;3145;42.726;23.342;2022-08-03T05:04:40;5.23;;;4.40;;
6223;SDS011;3145;42.726;23.342;2022-08-03T05:07:11;4.37;;;3.57;;
6223;SDS011;3145;42.726;23.342;2022-08-03T05:09:38;4.90;;;4.40;;
6223;SDS011;3145;42.726;23.342;2022-08-03T05:12:05;4.60;;;3.70;;
6223;SDS011;3145;42.726;23.342;2022-08-03T05:14:32;5.63;;;3.90;;
6223;SDS011;3145;42.726;23.342;2022-08-03T05:17:01;5.17;;;3.80;;
6223;SDS011;3145;42.726;23.342;2022-08-03T05:19:27;4.10;;;3.60;;
6223;SDS011;3145;42.726;23.342;2022-08-03T05:21:54;3.90;;;3.60;;
6223;SDS011;3145;42.726;23.342;2022-08-03T05:24:22;4.53;;;4.13;;
6223;SDS011;3145;42.726;23.342;2022-08-03T05:26:49;9.13;;;8.23;;
6223;SDS011;3145;42.726;23.342;2022-08-03T05:29:16;10.13;;;7.37;;
6223;SDS011;3145;42.726;23.342;2022-08-03T05:31:42;6.00;;;5.57;;
6223;SDS011;3145;42.726;23.342;2022-08-03T05:34:09;6.43;;;4.67;;
6223;SDS011;3145;42.726;23.342;2022-08-03T05:36:36;4.90;;;4.37;;
6223;SDS011;3145;42.726;23.342;2022-08-03T05:39:03;5.73;;;5.20;;
6223;SDS011;3145;42.726;23.342;2022-08-03T05:41:32;5.27;;;4.70;;
6223;SDS011;3145;42.726;23.342;2022-08-03T05:43:58;4.43;;;4.03;;
6223;SDS011;3145;42.726;23.342;2022-08-03T05:46:25;4.70;;;4.30;;
6223;SDS011;3145;42.726;23.342;2022-08-03T05:48:52;6.23;;;4.60;;
6223;SDS011;3145;42.726;23.342;2022-08-03T05:51:19;9.55;;;5.18;;
6223;SDS011;3145;42.726;23.342;2022-08-03T05:53:46;8.00;;;4.32;;
6223;SDS011;3145;42.726;23.342;2022-08-03T05:56:12;5.82;;;4.22;;
6223;SDS011;3145;42.726;23.342;2022-08-03T05:58:40;10.25;;;4.78;;
6223;SDS011;3145;42.726;23.342;2022-08-03T06:01:07;3.95;;;3.72;;
6223;SDS011;3145;42.726;23.342;2022-08-03T06:03:34;4.53;;;4.13;;
6223;SDS011;3145;42.726;23.342;2022-08-03T06:06:01;6.28;;;4.05;;
6223;SDS011;3145;42.726;23.342;2022-08-03T06:08:27;9.60;;;4.10;;
6223;SDS011;3145;42.726;23.342;2022-08-03T06:10:54;4.22;;;3.92;;
6223;SDS011;3145;42.726;23.342;2022-08-03T06:13:21;4.60;;;3.95;;
6223;SDS011;3145;42.726;23.342;2022-08-03T06:15:49;6.15;;;4.47;;
6223;SDS011;3145;42.726;23.342;2022-08-03T06:18:16;6.07;;;4.30;;
6223;SDS011;3145;42.726;23.342;2022-08-03T06:20:42;5.85;;;4.22;;
6223;SDS011;3145;42.726;23.342;2022-08-03T06:23:09;5.53;;;4.85;;
6223;SDS011;3145;42.726;23.342;2022-08-03T06:25:36;5.03;;;4.18;;
6223;SDS011;3145;42.726;23.342;2022-08-03T06:28:03;4.53;;;4.18;;
6223;SDS011;3145;42.726;23.342;2022-08-03T06:30:30;13.80;;;3.33;;
6223;SDS011;3145;42.726;23.342;2022-08-03T06:32:58;9.43;;;4.20;;
6223;SDS011;3145;42.726;23.342;2022-08-03T06:35:25;9.20;;;3.88;;
6223;SDS011;3145;42.726;23.342;2022-08-03T06:37:52;10.90;;;3.88;;
6223;SDS011;3145;42.726;23.342;2022-08-03T06:40:20;4.68;;;3.40;;
6223;SDS011;3145;42.726;23.342;2022-08-03T06:42:53;6.70;;;2.78;;
6223;SDS011;3145;42.726;23.342;2022-08-03T06:45:19;5.47;;;3.58;;
6223;SDS011;3145;42.726;23.342;2022-08-03T06:47:46;5.95;;;3.17;;
6223;SDS011;3145;42.726;23.342;2022-08-03T06:50:14;7.78;;;3.58;;
6223;SDS011;3145;42.726;23.342;2022-08-03T06:52:44;6.45;;;3.85;;
6223;SDS011;3145;42.726;23.342;2022-08-03T06:55:11;7.15;;;4.18;;
6223;SDS011;3145;42.726;23.342;2022-08-03T06:57:37;5.57;;;4.40;;
6223;SDS011;3145;42.726;23.342;2022-08-03T07:00:07;7.20;;;4.55;;
6223;SDS011;3145;42.726;23.342;2022-08-03T07:02:36;4.68;;;4.07;;
6223;SDS011;3145;42.726;23.342;2022-08-03T07:05:04;6.82;;;4.57;;
6223;SDS011;3145;42.726;23.342;2022-08-03T07:07:32;5.78;;;4.85;;
6223;SDS011;3145;42.726;23.342;2022-08-03T07:09:59;11.50;;;5.05;;
6223;SDS011;3145;42.726;23.342;2022-08-03T07:12:26;7.55;;;5.35;;
6223;SDS011;3145;42.726;23.342;2022-08-03T07:14:54;7.75;;;6.07;;
6223;SDS011;3145;42.726;23.342;2022-08-03T07:17:21;12.65;;;5.78;;
6223;SDS011;3145;42.726;23.342;2022-08-03T07:19:48;8.65;;;6.25;;
6223;SDS011;3145;42.726;23.342;2022-08-03T07:22:15;12.70;;;5.43;;
6223;SDS011;3145;42.726;23.342;2022-08-03T07:24:43;9.48;;;5.25;;
6223;SDS011;3145;42.726;23.342;2022-08-03T07:27:11;9.68;;;6.30;;
6223;SDS011;3145;42.726;23.342;2022-08-03T07:29:38;8.15;;;5.63;;
6223;SDS011;3145;42.726;23.342;2022-08-03T07:32:05;9.75;;;4.80;;
6223;SDS011;3145;42.726;23.342;2022-08-03T07:34:32;12.85;;;4.93;;
6223;SDS011;3145;42.726;23.342;2022-08-03T07:36:58;6.57;;;5.43;;
6223;SDS011;3145;42.726;23.342;2022-08-03T07:39:25;5.55;;;4.80;;
6223;SDS011;3145;42.726;23.342;2022-08-03T07:41:53;10.45;;;7.22;;
6223;SDS011;3145;42.726;23.342;2022-08-03T07:44:20;11.27;;;5.68;;
6223;SDS011;3145;42.726;23.342;2022-08-03T07:46:47;8.75;;;6.28;;
6223;SDS011;3145;42.726;23.342;2022-08-03T07:49:14;7.80;;;5.43;;
6223;SDS011;3145;42.726;23.342;2022-08-03T07:51:41;7.15;;;3.95;;
6223;SDS011;3145;42.726;23.342;2022-08-03T07:54:08;4.65;;;4.15;;
6223;SDS011;3145;42.726;23.342;2022-08-03T07:56:35;10.20;;;3.88;;
6223;SDS011;3145;42.726;23.342;2022-08-03T07:59:03;5.95;;;3.70;;
6223;SDS011;3145;42.726;23.342;2022-08-03T08:01:30;5.80;;;3.60;;
6223;SDS011;3145;42.726;23.342;2022-08-03T08:04:00;3.45;;;3.15;;
6223;SDS011;3145;42.726;23.342;2022-08-03T08:06:27;3.67;;;3.10;;
6223;SDS011;3145;42.726;23.342;2022-08-03T08:08:55;4.53;;;3.00;;
6223;SDS011;3145;42.726;23.342;2022-08-03T08:11:25;5.18;;;2.60;;
6223;SDS011;3145;42.726;23.342;2022-08-03T08:13:52;3.13;;;2.58;;
6223;SDS011;3145;42.726;23.342;2022-08-03T08:16:20;3.42;;;2.75;;
6223;SDS011;3145;42.726;23.342;2022-08-03T08:18:47;7.13;;;2.70;;
6223;SDS011;3145;42.726;23.342;2022-08-03T08:21:13;4.97;;;2.30;;
6223;SDS011;3145;42.726;23.342;2022-08-03T08:23:40;3.92;;;3.60;;
6223;SDS011;3145;42.726;23.342;2022-08-03T08:26:07;3.40;;;3.10;;
6223;SDS011;3145;42.726;23.342;2022-08-03T08:28:34;3.95;;;2.95;;
6223;SDS011;3145;42.726;23.342;2022-08-03T08:31:00;4.13;;;3.78;;
6223;SDS011;3145;42.726;23.342;2022-08-03T08:33:29;7.18;;;2.63;;
6223;SDS011;3145;42.726;23.342;2022-08-03T08:35:56;2.50;;;2.30;;
6223;SDS011;3145;42.726;23.342;2022-08-03T08:38:23;6.43;;;2.40;;
6223;SDS011;3145;42.726;23.342;2022-08-03T08:40:49;2.78;;;2.10;;
6223;SDS011;3145;42.726;23.342;2022-08-03T08:43:16;3.35;;;1.85;;
6223;SDS011;3145;42.726;23.342;2022-08-03T08:45:43;2.60;;;2.40;;
6223;SDS011;3145;42.726;23.342;2022-08-03T08:48:11;5.70;;;1.92;;
6223;SDS011;3145;42.726;23.342;2022-08-03T08:50:40;2.38;;;1.63;;
6223;SDS011;3145;42.726;23.342;2022-08-03T08:53:07;3.20;;;2.00;;
6223;SDS011;3145;42.726;23.342;2022-08-03T08:55:37;5.65;;;2.17;;
6223;SDS011;3145;42.726;23.342;2022-08-03T08:58:05;2.08;;;1.50;;
6223;SDS011;3145;42.726;23.342;2022-08-03T09:00:33;4.75;;;1.38;;
6223;SDS011;3145;42.726;23.342;2022-08-03T09:03:00;1.25;;;1.15;;
6223;SDS011;3145;42.726;23.342;2022-08-03T09:05:27;5.72;;;1.45;;
6223;SDS011;3145;42.726;23.342;2022-08-03T09:07:58;1.60;;;1.50;;
6223;SDS011;3145;42.726;23.342;2022-08-03T09:10:25;1.88;;;1.77;;
6223;SDS011;3145;42.726;23.342;2022-08-03T09:12:51;3.67;;;1.80;;
6223;SDS011;3145;42.726;23.342;2022-08-03T09:15:20;1.73;;;1.35;;
6223;SDS011;3145;42.726;23.342;2022-08-03T09:17:49;3.88;;;1.50;;
6223;SDS011;3145;42.726;23.342;2022-08-03T09:20:17;1.63;;;1.52;;
6223;SDS011;3145;42.726;23.342;2022-08-03T09:22:51;3.35;;;0.98;;
6223;SDS011;3145;42.726;23.342;2022-08-03T09:25:26;2.53;;;1.20;;
6223;SDS011;3145;42.726;23.342;2022-08-03T09:27:55;2.75;;;1.30;;
6223;SDS011;3145;42.726;23.342;2022-08-03T09:30:30;3.40;;;1.10;;
6223;SDS011;3145;42.726;23.342;2022-08-03T09:32:58;3.95;;;1.48;;
6223;SDS011;3145;42.726;23.342;2022-08-03T09:35:26;1.42;;;1.33;;
6223;SDS011;3145;42.726;23.342;2022-08-03T09:38:07;2.42;;;1.90;;
6223;SDS011;3145;42.726;23.342;2022-08-03T09:40:37;2.00;;;1.90;;
6223;SDS011;3145;42.726;23.342;2022-08-03T09:43:04;2.13;;;1.45;;
6223;SDS011;3145;42.726;23.342;2022-08-03T09:45:32;3.72;;;1.85;;
6223;SDS011;3145;42.726;23.342;2022-08-03T09:48:11;1.80;;;1.70;;
6223;SDS011;3145;42.726;23.342;2022-08-03T09:50:46;2.08;;;1.98;;
6223;SDS011;3145;42.726;23.342;2022-08-03T09:53:14;1.70;;;1.60;;
6223;SDS011;3145;42.726;23.342;2022-08-03T09:55:50;1.27;;;1.17;;
6223;SDS011;3145;42.726;23.342;2022-08-03T09:58:19;2.88;;;1.38;;
6223;SDS011;3145;42.726;23.342;2022-08-03T10:00:52;2.15;;;1.92;;
6223;SDS011;3145;42.726;23.342;2022-08-03T10:03:20;2.10;;;1.20;;
6223;SDS011;3145;42.726;23.342;2022-08-03T10:05:47;1.48;;;1.23;;
6223;SDS011;3145;42.726;23.342;2022-08-03T10:08:14;1.58;;;1.48;;
6223;SDS011;3145;42.726;23.342;2022-08-03T10:10:43;1.63;;;1.52;;
6223;SDS011;3145;42.726;23.342;2022-08-03T10:13:12;2.83;;;1.73;;
6223;SDS011;3145;42.726;23.342;2022-08-03T10:15:40;1.20;;;1.20;;
6223;SDS011;3145;42.726;23.342;2022-08-03T10:18:07;1.20;;;1.10;;
6223;SDS011;3145;42.726;23.342;2022-08-03T10:20:35;2.33;;;1.30;;
6223;SDS011;3145;42.726;23.342;2022-08-03T10:23:03;1.83;;;1.58;;
6223;SDS011;3145;42.726;23.342;2022-08-03T10:25:30;2.45;;;1.40;;
6223;SDS011;3145;42.726;23.342;2022-08-03T10:27:59;1.95;;;1.08;;
6223;SDS011;3145;42.726;23.342;2022-08-03T10:30:31;1.45;;;1.35;;
6223;SDS011;3145;42.726;23.342;2022-08-03T10:33:01;2.00;;;1.80;;
6223;SDS011;3145;42.726;23.342;2022-08-03T10:35:30;2.08;;;1.98;;
6223;SDS011;3145;42.726;23.342;2022-08-03T10:37:57;2.00;;;1.90;;
6223;SDS011;3145;42.726;23.342;2022-08-03T10:40:25;2.42;;;1.48;;
6223;SDS011;3145;42.726;23.342;2022-08-03T10:42:55;1.95;;;1.85;;
6223;SDS011;3145;42.726;23.342;2022-08-03T10:45:27;1.85;;;1.75;;
6223;SDS011;3145;42.726;23.342;2022-08-03T10:47:59;4.03;;;1.77;;
6223;SDS011;3145;42.726;23.342;2022-08-03T10:50:26;1.65;;;1.30;;
6223;SDS011;3145;42.726;23.342;2022-08-03T10:52:54;2.75;;;1.42;;
6223;SDS011;3145;42.726;23.342;2022-08-03T10:55:31;1.50;;;1.40;;
6223;SDS011;3145;42.726;23.342;2022-08-03T11:01:16;2.17;;;1.73;;
6223;SDS011;3145;42.726;23.342;2022-08-03T11:06:41;1.30;;;1.20;;
6223;SDS011;3145;42.726;23.342;2022-08-03T11:09:16;1.13;;;1.10;;
6223;SDS011;3145;42.726;23.342;2022-08-03T11:11:43;2.65;;;1.30;;
6223;SDS011;3145;42.726;23.342;2022-08-03T11:14:12;2.10;;;1.30;;
6223;SDS011;3145;42.726;23.342;2022-08-03T11:16:42;2.00;;;1.30;;
6223;SDS011;3145;42.726;23.342;2022-08-03T11:19:12;1.13;;;1.13;;
6223;SDS011;3145;42.726;23.342;2022-08-03T11:21:53;1.10;;;1.05;;
6223;SDS011;3145;42.726;23.342;2022-08-03T11:27:25;3.08;;;1.30;;
6223;SDS011;3145;42.726;23.342;2022-08-03T11:29:55;1.50;;;1.40;;
6223;SDS011;3145;42.726;23.342;2022-08-03T11:35:21;1.27;;;1.10;;
6223;SDS011;3145;42.726;23.342;2022-08-03T11:38:05;2.22;;;1.30;;
6223;SDS011;3145;42.726;23.342;2022-08-03T11:40:34;1.80;;;1.27;;
6223;SDS011;3145;42.726;23.342;2022-08-03T11:43:03;1.45;;;1.35;;
6223;SDS011;3145;42.726;23.342;2022-08-03T11:45:31;1.67;;;1.50;;
6223;SDS011;3145;42.726;23.342;2022-08-03T11:48:01;1.40;;;1.30;;
6223;SDS011;3145;42.726;23.342;2022-08-03T11:50:37;1.73;;;1.40;;
6223;SDS011;3145;42.726;23.342;2022-08-03T11:53:04;1.50;;;1.40;;
6223;SDS011;3145;42.726;23.342;2022-08-03T11:55:32;2.22;;;1.48;;
6223;SDS011;3145;42.726;23.342;2022-08-03T11:58:01;1.52;;;1.42;;
6223;SDS011;3145;42.726;23.342;2022-08-03T12:00:28;2.50;;;2.30;;
6223;SDS011;3145;42.726;23.342;2022-08-03T12:03:02;1.85;;;1.60;;
6223;SDS011;3145;42.726;23.342;2022-08-03T12:05:38;12.32;;;2.05;;
6223;SDS011;3145;42.726;23.342;2022-08-03T12:08:07;1.75;;;1.65;;
6223;SDS011;3145;42.726;23.342;2022-08-03T12:10:34;2.38;;;1.58;;
6223;SDS011;3145;42.726;23.342;2022-08-03T12:13:02;1.80;;;1.33;;
6223;SDS011;3145;42.726;23.342;2022-08-03T12:15:33;1.58;;;1.33;;
6223;SDS011;3145;42.726;23.342;2022-08-03T12:18:02;1.95;;;1.75;;
6223;SDS011;3145;42.726;23.342;2022-08-03T12:20:30;2.95;;;1.35;;
6223;SDS011;3145;42.726;23.342;2022-08-03T12:23:02;1.65;;;1.55;;
6223;SDS011;3145;42.726;23.342;2022-08-03T12:25:29;2.08;;;1.55;;
6223;SDS011;3145;42.726;23.342;2022-08-03T12:28:05;1.50;;;1.40;;
6223;SDS011;3145;42.726;23.342;2022-08-03T12:30:34;1.63;;;1.52;;
6223;SDS011;3145;42.726;23.342;2022-08-03T12:33:12;1.58;;;1.48;;
6223;SDS011;3145;42.726;23.342;2022-08-03T12:35:39;2.55;;;1.60;;
6223;SDS011;3145;42.726;23.342;2022-08-03T12:38:06;1.98;;;1.80;;
6223;SDS011;3145;42.726;23.342;2022-08-03T12:40:33;1.42;;;1.33;;
6223;SDS011;3145;42.726;23.342;2022-08-03T12:43:00;1.52;;;1.27;;
6223;SDS011;3145;42.726;23.342;2022-08-03T12:45:28;1.30;;;1.20;;
6223;SDS011;3145;42.726;23.342;2022-08-03T12:47:56;1.45;;;1.20;;
6223;SDS011;3145;42.726;23.342;2022-08-03T12:50:29;2.05;;;1.27;;
6223;SDS011;3145;42.726;23.342;2022-08-03T12:52:57;1.50;;;1.40;;
6223;SDS011;3145;42.726;23.342;2022-08-03T12:55:25;1.67;;;1.58;;
6223;SDS011;3145;42.726;23.342;2022-08-03T12:57:57;1.52;;;1.42;;
6223;SDS011;3145;42.726;23.342;2022-08-03T13:00:24;1.35;;;1.25;;
6223;SDS011;3145;42.726;23.342;2022-08-03T13:02:57;1.48;;;1.38;;
6223;SDS011;3145;42.726;23.342;2022-08-03T13:05:25;1.40;;;1.30;;
6223;SDS011;3145;42.726;23.342;2022-08-03T13:07:53;1.80;;;1.70;;
6223;SDS011;3145;42.726;23.342;2022-08-03T13:10:27;3.05;;;1.52;;
6223;SDS011;3145;42.726;23.342;2022-08-03T13:12:55;2.85;;;1.77;;
6223;SDS011;3145;42.726;23.342;2022-08-03T13:15:24;1.75;;;1.65;;
6223;SDS011;3145;42.726;23.342;2022-08-03T13:17:52;3.58;;;2.13;;
6223;SDS011;3145;42.726;23.342;2022-08-03T13:20:19;2.08;;;1.98;;
6223;SDS011;3145;42.726;23.342;2022-08-03T13:22:46;8.27;;;2.25;;
6223;SDS011;3145;42.726;23.342;2022-08-03T13:25:15;1.70;;;1.60;;
6223;SDS011;3145;42.726;23.342;2022-08-03T13:27:42;2.97;;;1.50;;
6223;SDS011;3145;42.726;23.342;2022-08-03T13:30:08;2.17;;;2.05;;
6223;SDS011;3145;42.726;23.342;2022-08-03T13:32:36;2.72;;;1.67;;
6223;SDS011;3145;42.726;23.342;2022-08-03T13:35:03;2.13;;;1.92;;
6223;SDS011;3145;42.726;23.342;2022-08-03T13:37:30;2.30;;;1.88;;
6223;SDS011;3145;42.726;23.342;2022-08-03T13:39:57;5.97;;;1.98;;
6223;SDS011;3145;42.726;23.342;2022-08-03T13:42:26;4.90;;;1.77;;
6223;SDS011;3145;42.726;23.342;2022-08-03T13:44:53;1.90;;;1.80;;
6223;SDS011;3145;42.726;23.342;2022-08-03T13:47:20;6.30;;;2.28;;
6223;SDS011;3145;42.726;23.342;2022-08-03T13:49:47;4.72;;;2.17;;
6223;SDS011;3145;42.726;23.342;2022-08-03T13:52:15;1.95;;;1.85;;
6223;SDS011;3145;42.726;23.342;2022-08-03T13:54:42;2.20;;;2.00;;
6223;SDS011;3145;42.726;23.342;2022-08-03T13:57:08;3.58;;;1.80;;
6223;SDS011;3145;42.726;23.342;2022-08-03T13:59:37;2.22;;;2.03;;
6223;SDS011;3145;42.726;23.342;2022-08-03T14:02:04;2.67;;;1.60;;
6223;SDS011;3145;42.726;23.342;2022-08-03T14:04:30;4.13;;;1.83;;
6223;SDS011;3145;42.726;23.342;2022-08-03T14:06:57;2.35;;;1.88;;
6223;SDS011;3145;42.726;23.342;2022-08-03T14:09:24;2.28;;;1.95;;
6223;SDS011;3145;42.726;23.342;2022-08-03T14:11:50;2.03;;;1.92;;
6223;SDS011;3145;42.726;23.342;2022-08-03T14:14:17;1.80;;;1.70;;
6223;SDS011;3145;42.726;23.342;2022-08-03T14:16:45;2.00;;;1.90;;
6223;SDS011;3145;42.726;23.342;2022-08-03T14:19:12;2.08;;;1.75;;
6223;SDS011;3145;42.726;23.342;2022-08-03T14:21:39;2.08;;;1.90;;
6223;SDS011;3145;42.726;23.342;2022-08-03T14:24:06;1.83;;;1.73;;
6223;SDS011;3145;42.726;23.342;2022-08-03T14:26:33;2.35;;;2.10;;
6223;SDS011;3145;42.726;23.342;2022-08-03T14:29:00;2.25;;;2.08;;
6223;SDS011;3145;42.726;23.342;2022-08-03T14:31:28;2.55;;;2.35;;
6223;SDS011;3145;42.726;23.342;2022-08-03T14:33:57;3.22;;;1.80;;
6223;SDS011;3145;42.726;23.342;2022-08-03T14:36:23;3.88;;;3.50;;
6223;SDS011;3145;42.726;23.342;2022-08-03T14:38:50;2.60;;;2.40;;
6223;SDS011;3145;42.726;23.342;2022-08-03T14:41:17;2.55;;;1.75;;
6223;SDS011;3145;42.726;23.342;2022-08-03T14:43:44;2.20;;;2.05;;
6223;SDS011;3145;42.726;23.342;2022-08-03T14:46:10;2.20;;;1.85;;
6223;SDS011;3145;42.726;23.342;2022-08-03T14:48:37;1.80;;;1.70;;
6223;SDS011;3145;42.726;23.342;2022-08-03T14:51:05;3.25;;;2.20;;
6223;SDS011;3145;42.726;23.342;2022-08-03T14:53:32;1.88;;;1.77;;
6223;SDS011;3145;42.726;23.342;2022-08-03T14:55:59;3.47;;;1.80;;
6223;SDS011;3145;42.726;23.342;2022-08-03T14:58:26;1.75;;;1.65;;
6223;SDS011;3145;42.726;23.342;2022-08-03T15:00:53;2.05;;;1.60;;
6223;SDS011;3145;42.726;23.342;2022-08-03T15:03:21;4.18;;;2.10;;
6223;SDS011;3145;42.726;23.342;2022-08-03T15:05:48;5.38;;;2.85;;
6223;SDS011;3145;42.726;23.342;2022-08-03T15:08:17;5.10;;;2.85;;
6223;SDS011;3145;42.726;23.342;2022-08-03T15:10:43;3.20;;;3.00;;
6223;SDS011;3145;42.726;23.342;2022-08-03T15:13:10;3.50;;;3.10;;
6223;SDS011;3145;42.726;23.342;2022-08-03T15:15:37;2.92;;;2.72;;
6223;SDS011;3145;42.726;23.342;2022-08-03T15:18:04;3.03;;;2.83;;
6223;SDS011;3145;42.726;23.342;2022-08-03T15:20:31;3.78;;;3.47;;